Time;durP1;ratioP1;P1;durP2;ratioP2;P2;SDS_P1;SDS_P2;PMS_P1;PMS_P2;Temp;Humidity;BMP_temperature;BMP_pressure;BME280_temperature;BME280_humidity;BME280_pressure;Samples;Min_cycle;Max_cycle;Signal;HPM_P1;HPM_P2
2023/12/30 00:01:46;;;;;;;29.50;16.90;;;;;;;-147.86;100.00;-17609.17;105652;1254;72865;-55
2023/12/30 00:04:13;;;;;;;24.90;15.90;;;;;;;-147.86;100.00;-17609.17;105614;1259;61899;-56
2023/12/30 00:06:40;;;;;;;29.40;15.00;;;;;;;-147.86;100.00;-17609.17;105686;1254;60575;-53
2023/12/30 00:09:08;;;;;;;25.40;15.60;;;;;;;-147.86;100.00;-17609.17;105819;1254;72912;-55
2023/12/30 00:11:35;;;;;;;27.90;16.40;;;;;;;-147.86;100.00;-17609.17;105729;1258;64627;-53
2023/12/30 00:14:02;;;;;;;29.30;16.80;;;;;;;-147.86;100.00;-17609.17;105655;1254;72641;-54
2023/12/30 00:16:29;;;;;;;28.50;16.90;;;;;;;-147.86;100.00;-17609.17;105631;1259;60956;-54
2023/12/30 00:18:56;;;;;;;26.40;15.20;;;;;;;-147.86;100.00;-17609.17;105683;1254;60160;-51
2023/12/30 00:21:23;;;;;;;28.70;16.00;;;;;;;-147.86;100.00;-17609.17;105689;1254;73049;-51
2023/12/30 00:23:50;;;;;;;27.10;15.30;;;;;;;-147.86;100.00;-17609.17;105688;1259;64636;-54
2023/12/30 00:26:24;;;;;;;32.10;16.60;;;;;;;-147.86;100.00;-17609.17;105694;1254;71226;-53
2023/12/30 00:29:12;;;;;;;26.50;15.40;;;;;;;-147.86;100.00;-17609.17;105631;1259;60832;-52
2023/12/30 00:31:39;;;;;;;35.00;17.50;;;;;;;-147.86;100.00;-17609.17;105678;1254;60777;-52
2023/12/30 00:34:07;;;;;;;27.70;16.20;;;;;;;-147.86;100.00;-17609.17;105649;1254;71988;-51
2023/12/30 00:36:34;;;;;;;32.30;16.50;;;;;;;-147.86;100.00;-17609.17;105689;1259;64708;-55
2023/12/30 00:39:01;;;;;;;28.40;16.40;;;;;;;-147.86;100.00;-17609.17;105630;1254;72124;-54
2023/12/30 00:41:28;;;;;;;31.00;16.90;;;;;;;-147.86;100.00;-17609.17;105528;1260;61235;-53
2023/12/30 00:43:55;;;;;;;28.90;16.30;;;;;;;-147.86;100.00;-17609.17;105672;1254;60321;-54
2023/12/30 00:46:24;;;;;;;34.80;15.50;;;;;;;-147.86;100.00;-17609.17;105624;1254;73142;-53
2023/12/30 00:48:51;;;;;;;32.60;17.10;;;;;;;-147.86;100.00;-17609.17;105593;1256;64678;-53
2023/12/30 00:51:25;;;;;;;28.30;15.30;;;;;;;-147.86;100.00;-17609.17;105650;1254;72521;-53
2023/12/30 00:53:52;;;;;;;29.80;16.20;;;;;;;-147.86;100.00;-17609.17;105679;1254;61175;-54
2023/12/30 00:56:19;;;;;;;33.40;15.80;;;;;;;-147.86;100.00;-17609.17;105657;1254;60444;-55
2023/12/30 00:58:46;;;;;;;29.10;15.70;;;;;;;-147.86;100.00;-17609.17;105610;1260;74244;-53
2023/12/30 01:01:13;;;;;;;28.20;16.10;;;;;;;-147.86;100.00;-17609.17;105715;1259;64729;-56
2023/12/30 01:03:41;;;;;;;31.50;16.50;;;;;;;-147.86;100.00;-17609.17;105648;1254;72645;-53
2023/12/30 01:06:08;;;;;;;28.20;16.00;;;;;;;-147.86;100.00;-17609.17;105737;1259;61145;-51
2023/12/30 01:08:36;;;;;;;28.30;14.90;;;;;;;-147.86;100.00;-17609.17;105705;1254;60434;-50
2023/12/30 01:11:03;;;;;;;28.80;16.30;;;;;;;-147.86;100.00;-17609.17;105585;1257;73744;-52
2023/12/30 01:13:30;;;;;;;22.70;14.80;;;;;;;-147.86;100.00;-17609.17;105696;1259;65202;-53
2023/12/30 01:15:58;;;;;;;30.10;15.40;;;;;;;-147.86;100.00;-17609.17;105637;1259;72486;-55
2023/12/30 01:18:25;;;;;;;30.90;15.20;;;;;;;-147.86;100.00;-17609.17;105638;1258;61159;-53
2023/12/30 01:20:53;;;;;;;29.60;16.30;;;;;;;-147.86;100.00;-17609.17;105737;1254;60413;-53
2023/12/30 01:23:20;;;;;;;27.80;16.10;;;;;;;-147.86;100.00;-17609.17;105604;1254;73819;-52
2023/12/30 01:25:48;;;;;;;30.10;15.90;;;;;;;-147.86;100.00;-17609.17;105660;1254;64592;-54
2023/12/30 01:28:15;;;;;;;23.60;15.20;;;;;;;-147.86;100.00;-17609.17;105656;1254;72665;-52
2023/12/30 01:30:42;;;;;;;28.20;15.80;;;;;;;-147.86;100.00;-17609.17;105706;1259;61242;-53
2023/12/30 01:33:10;;;;;;;27.20;15.50;;;;;;;-147.86;100.00;-17609.17;105656;1254;60444;-52
2023/12/30 01:35:37;;;;;;;24.10;15.20;;;;;;;-147.86;100.00;-17609.17;105692;1256;73828;-53
2023/12/30 01:38:04;;;;;;;29.80;15.10;;;;;;;-147.86;100.00;-17609.17;105547;1260;64583;-55
2023/12/30 01:40:33;;;;;;;27.80;15.70;;;;;;;-147.86;100.00;-17609.17;105690;1254;72434;-55
2023/12/30 01:43:02;;;;;;;29.60;15.10;;;;;;;-147.86;100.00;-17609.17;105662;1256;61183;-52
2023/12/30 01:45:31;;;;;;;25.10;14.50;;;;;;;-147.86;100.00;-17609.17;105657;1256;60364;-54
2023/12/30 01:47:58;;;;;;;24.20;14.90;;;;;;;-147.86;100.00;-17609.17;105603;1256;74080;-54
2023/12/30 01:50:25;;;;;;;24.10;15.00;;;;;;;-147.86;100.00;-17609.17;105645;1260;64637;-50
2023/12/30 01:52:52;;;;;;;27.10;14.70;;;;;;;-147.86;100.00;-17609.17;105650;1254;72483;-54
2023/12/30 01:55:19;;;;;;;28.20;15.30;;;;;;;-147.86;100.00;-17609.17;105713;1258;61244;-55
2023/12/30 01:57:47;;;;;;;23.20;13.70;;;;;;;-147.86;100.00;-17609.17;105593;1254;60512;-52
2023/12/30 02:00:19;;;;;;;21.20;14.00;;;;;;;-147.86;100.00;-17609.17;105595;1260;74058;-52
2023/12/30 02:02:47;;;;;;;23.60;14.70;;;;;;;-147.86;100.00;-17609.17;105542;1262;64415;-53
2023/12/30 02:05:14;;;;;;;27.90;15.00;;;;;;;-147.86;100.00;-17609.17;105645;1254;72562;-56
2023/12/30 02:07:46;;;;;;;26.20;14.60;;;;;;;-147.86;100.00;-17609.17;105678;1259;61126;-54
2023/12/30 02:10:13;;;;;;;26.40;15.10;;;;;;;-147.86;100.00;-17609.17;105629;1254;60409;-53
2023/12/30 02:12:41;;;;;;;24.90;14.10;;;;;;;-147.86;100.00;-17609.17;105661;1254;73702;-51
2023/12/30 02:15:13;;;;;;;25.20;14.00;;;;;;;-147.86;100.00;-17609.17;105614;1258;64683;-56
2023/12/30 02:17:40;;;;;;;24.70;14.00;;;;;;;-147.86;100.00;-17609.17;105511;1259;72522;-55
2023/12/30 02:20:08;;;;;;;27.90;13.50;;;;;;;-147.86;100.00;-17609.17;105402;1254;60531;-56
2023/12/30 02:22:35;;;;;;;29.10;14.80;;;;;;;-147.86;100.00;-17609.17;105433;1254;60447;-53
2023/12/30 02:25:02;;;;;;;23.70;13.60;;;;;;;-147.86;100.00;-17609.17;105693;1256;74255;-53
2023/12/30 02:27:30;;;;;;;23.70;13.50;;;;;;;-147.86;100.00;-17609.17;105670;1258;64640;-53
2023/12/30 02:29:57;;;;;;;26.00;13.70;;;;;;;-147.86;100.00;-17609.17;105649;1254;72598;-55
2023/12/30 02:32:24;;;;;;;26.90;14.80;;;;;;;-147.86;100.00;-17609.17;105700;1257;60364;-56
2023/12/30 02:34:51;;;;;;;28.30;13.70;;;;;;;-147.86;100.00;-17609.17;105686;1254;60453;-52
2023/12/30 02:37:18;;;;;;;21.00;13.50;;;;;;;-147.86;100.00;-17609.17;105631;1254;73777;-56
2023/12/30 02:39:45;;;;;;;22.90;14.10;;;;;;;-147.86;100.00;-17609.17;105629;1260;64662;-54
2023/12/30 02:42:12;;;;;;;23.40;13.70;;;;;;;-147.86;100.00;-17609.17;105611;1254;72517;-54
2023/12/30 02:44:38;;;;;;;22.70;13.70;;;;;;;-147.86;100.00;-17609.17;105630;1259;60419;-52
2023/12/30 02:47:05;;;;;;;24.70;13.60;;;;;;;-147.86;100.00;-17609.17;105677;1254;60421;-55
2023/12/30 02:49:33;;;;;;;24.20;13.50;;;;;;;-147.86;100.00;-17609.17;105657;1254;73766;-54
2023/12/30 02:52:00;;;;;;;25.00;12.60;;;;;;;-147.86;100.00;-17609.17;105599;1260;64726;-54
2023/12/30 02:54:28;;;;;;;28.60;13.20;;;;;;;-147.86;100.00;-17609.17;105664;1254;71726;-55
2023/12/30 02:56:56;;;;;;;20.20;13.30;;;;;;;-147.86;100.00;-17609.17;105664;1259;60423;-55
2023/12/30 02:59:22;;;;;;;26.50;13.40;;;;;;;-147.86;100.00;-17609.17;105658;1254;60444;-53
2023/12/30 03:01:49;;;;;;;23.90;13.10;;;;;;;-147.86;100.00;-17609.17;105634;1254;73771;-53
2023/12/30 03:04:16;;;;;;;26.90;14.60;;;;;;;-147.86;100.00;-17609.17;105654;1258;64541;-54
2023/12/30 03:06:44;;;;;;;26.90;14.00;;;;;;;-147.86;100.00;-17609.17;105641;1255;72720;-55
2023/12/30 03:09:11;;;;;;;22.30;13.30;;;;;;;-147.86;100.00;-17609.17;105718;1259;60409;-53
2023/12/30 03:11:39;;;;;;;23.80;13.50;;;;;;;-147.86;100.00;-17609.17;105701;1254;61184;-54
2023/12/30 03:14:05;;;;;;;28.20;13.90;;;;;;;-147.86;100.00;-17609.17;105654;1258;73662;-53
2023/12/30 03:16:32;;;;;;;26.40;13.90;;;;;;;-147.86;100.00;-17609.17;105712;1258;64542;-56
2023/12/30 03:19:01;;;;;;;25.80;13.90;;;;;;;-147.86;100.00;-17609.17;105651;1257;73861;-55
2023/12/30 03:21:28;;;;;;;29.60;14.00;;;;;;;-147.86;100.00;-17609.17;105676;1258;60429;-54
2023/12/30 03:23:55;;;;;;;25.40;13.30;;;;;;;-147.86;100.00;-17609.17;105710;1256;60469;-52
2023/12/30 03:26:22;;;;;;;26.00;13.60;;;;;;;-147.86;100.00;-17609.17;105739;1254;73732;-51
2023/12/30 03:28:49;;;;;;;26.00;14.60;;;;;;;-147.86;100.00;-17609.17;105685;1256;64710;-52
2023/12/30 03:31:21;;;;;;;26.00;13.50;;;;;;;-147.86;100.00;-17609.17;105677;1254;72509;-50
2023/12/30 03:33:48;;;;;;;21.80;13.20;;;;;;;-147.86;100.00;-17609.17;105702;1257;60463;-51
2023/12/30 03:36:15;;;;;;;24.60;14.10;;;;;;;-147.86;100.00;-17609.17;105628;1254;60682;-51
2023/12/30 03:38:42;;;;;;;29.70;14.50;;;;;;;-147.86;100.00;-17609.17;105678;1257;73841;-50
2023/12/30 03:41:09;;;;;;;26.90;15.00;;;;;;;-147.86;100.00;-17609.17;105665;1258;64745;-52
2023/12/30 03:43:36;;;;;;;22.70;13.80;;;;;;;-147.86;100.00;-17609.17;105598;1254;72730;-52
2023/12/30 03:46:03;;;;;;;27.40;14.60;;;;;;;-147.86;100.00;-17609.17;105678;1259;60521;-53
2023/12/30 03:48:31;;;;;;;25.40;14.30;;;;;;;-147.86;100.00;-17609.17;105667;1254;60534;-54
2023/12/30 03:50:58;;;;;;;27.10;14.60;;;;;;;-147.86;100.00;-17609.17;105640;1254;72375;-51
2023/12/30 03:53:25;;;;;;;24.90;14.40;;;;;;;-147.86;100.00;-17609.17;105687;1258;64881;-53
2023/12/30 03:55:52;;;;;;;31.50;16.10;;;;;;;-147.86;100.00;-17609.17;105639;1257;72673;-53
2023/12/30 03:58:19;;;;;;;27.30;15.30;;;;;;;-147.86;100.00;-17609.17;105619;1259;62424;-55
2023/12/30 04:00:46;;;;;;;27.20;15.10;;;;;;;-147.86;100.00;-17609.17;105617;1261;60486;-54
2023/12/30 04:03:14;;;;;;;22.70;14.00;;;;;;;-147.86;100.00;-17609.17;105686;1258;73794;-53
2023/12/30 04:05:42;;;;;;;26.00;14.70;;;;;;;-147.86;100.00;-17609.17;105648;1259;64696;-56
2023/12/30 04:08:10;;;;;;;28.80;15.20;;;;;;;-147.86;100.00;-17609.17;105681;1258;72356;-55
2023/12/30 04:10:36;;;;;;;26.70;15.70;;;;;;;-147.86;100.00;-17609.17;105649;1258;61256;-54
2023/12/30 04:13:04;;;;;;;25.10;14.90;;;;;;;-147.86;100.00;-17609.17;105675;1254;60411;-54
2023/12/30 04:15:32;;;;;;;27.00;15.80;;;;;;;-147.86;100.00;-17609.17;105624;1260;73653;-50
2023/12/30 04:17:59;;;;;;;31.60;16.70;;;;;;;-147.86;100.00;-17609.17;105630;1260;64694;-52
2023/12/30 04:20:26;;;;;;;23.40;14.70;;;;;;;-147.86;100.00;-17609.17;105701;1259;72807;-51
2023/12/30 04:22:54;;;;;;;28.20;15.10;;;;;;;-147.86;100.00;-17609.17;105676;1258;61896;-49
2023/12/30 04:25:21;;;;;;;25.70;14.30;;;;;;;-147.86;100.00;-17609.17;105627;1254;60492;-56
2023/12/30 04:27:49;;;;;;;24.50;14.00;;;;;;;-147.86;100.00;-17609.17;105670;1254;73792;-53
2023/12/30 04:30:16;;;;;;;26.50;15.20;;;;;;;-147.86;100.00;-17609.17;105713;1259;64436;-50
2023/12/30 04:32:43;;;;;;;27.20;15.90;;;;;;;-147.86;100.00;-17609.17;105620;1254;72518;-52
2023/12/30 04:35:11;;;;;;;33.00;15.80;;;;;;;-147.86;100.00;-17609.17;105671;1256;60887;-55
2023/12/30 04:37:37;;;;;;;28.40;15.40;;;;;;;-147.86;100.00;-17609.17;105655;1254;60547;-56
2023/12/30 04:40:05;;;;;;;32.00;15.60;;;;;;;-147.86;100.00;-17609.17;105620;1258;73924;-52
2023/12/30 04:42:32;;;;;;;29.30;15.80;;;;;;;-147.86;100.00;-17609.17;105693;1260;64815;-53
2023/12/30 04:44:59;;;;;;;36.50;15.80;;;;;;;-147.86;100.00;-17609.17;105562;1254;71674;-52
2023/12/30 04:47:26;;;;;;;27.90;16.00;;;;;;;-147.86;100.00;-17609.17;105588;1260;61045;-52
2023/12/30 04:49:53;;;;;;;28.90;15.70;;;;;;;-147.86;100.00;-17609.17;105620;1254;60492;-52
2023/12/30 04:52:20;;;;;;;28.20;15.20;;;;;;;-147.86;100.00;-17609.17;105602;1260;72656;-55
2023/12/30 04:54:48;;;;;;;30.30;16.00;;;;;;;-147.86;100.00;-17609.17;105693;1258;64674;-51
2023/12/30 04:57:16;;;;;;;28.50;15.20;;;;;;;-147.86;100.00;-17609.17;105669;1257;70636;-51
2023/12/30 04:59:42;;;;;;;29.70;14.90;;;;;;;-147.86;100.00;-17609.17;105706;1258;61175;-53
2023/12/30 05:02:09;;;;;;;25.90;15.20;;;;;;;-147.86;100.00;-17609.17;105633;1254;60409;-53
2023/12/30 05:04:36;;;;;;;27.70;15.00;;;;;;;-147.86;100.00;-17609.17;105678;1257;73780;-55
2023/12/30 05:07:04;;;;;;;26.60;14.90;;;;;;;-147.86;100.00;-17609.17;105641;1260;64649;-54
2023/12/30 05:09:34;;;;;;;25.60;15.20;;;;;;;-147.86;100.00;-17609.17;105654;1254;72335;-54
2023/12/30 05:12:01;;;;;;;28.00;15.40;;;;;;;-147.86;100.00;-17609.17;105648;1259;60866;-53
2023/12/30 05:14:28;;;;;;;27.80;15.70;;;;;;;-147.86;100.00;-17609.17;105659;1254;60534;-49
2023/12/30 05:16:55;;;;;;;28.30;15.60;;;;;;;-147.86;100.00;-17609.17;105656;1259;73768;-53
2023/12/30 05:19:22;;;;;;;30.10;16.40;;;;;;;-147.86;100.00;-17609.17;105673;1256;64745;-54
2023/12/30 05:21:51;;;;;;;32.50;16.30;;;;;;;-147.86;100.00;-17609.17;105678;1254;72494;-50
2023/12/30 05:24:18;;;;;;;29.10;15.80;;;;;;;-147.86;100.00;-17609.17;105657;1259;61152;-51
2023/12/30 05:26:46;;;;;;;24.60;14.90;;;;;;;-147.86;100.00;-17609.17;105629;1254;60519;-53
2023/12/30 05:29:13;;;;;;;28.40;14.10;;;;;;;-147.86;100.00;-17609.17;105671;1256;73670;-52
2023/12/30 05:31:39;;;;;;;31.00;15.00;;;;;;;-147.86;100.00;-17609.17;105685;1258;64793;-52
2023/12/30 05:34:07;;;;;;;27.40;14.90;;;;;;;-147.86;100.00;-17609.17;105640;1254;72606;-52
2023/12/30 05:36:37;;;;;;;24.60;14.20;;;;;;;-147.86;100.00;-17609.17;105641;1258;61112;-53
2023/12/30 05:39:04;;;;;;;22.90;14.30;;;;;;;-147.86;100.00;-17609.17;105717;1256;60335;-50
2023/12/30 05:41:31;;;;;;;26.80;15.20;;;;;;;-147.86;100.00;-17609.17;105661;1255;73658;-52
2023/12/30 05:43:58;;;;;;;25.60;14.80;;;;;;;-147.86;100.00;-17609.17;105654;1258;64763;-50
2023/12/30 05:46:26;;;;;;;22.20;13.90;;;;;;;-147.86;100.00;-17609.17;105625;1254;72717;-51
2023/12/30 05:48:53;;;;;;;29.70;15.80;;;;;;;-147.86;100.00;-17609.17;105682;1259;61187;-52
2023/12/30 05:51:20;;;;;;;22.60;14.60;;;;;;;-147.86;100.00;-17609.17;105709;1256;60444;-53
2023/12/30 05:53:50;;;;;;;28.00;15.20;;;;;;;-147.86;100.00;-17609.17;105627;1257;73892;-52
2023/12/30 05:56:24;;;;;;;22.30;14.20;;;;;;;-147.86;100.00;-17609.17;105991;1255;64793;-50
2023/12/30 05:58:52;;;;;;;30.80;16.20;;;;;;;-147.86;100.00;-17609.17;105965;1250;73151;-53
2023/12/30 06:01:19;;;;;;;24.80;14.40;;;;;;;-147.86;100.00;-17609.17;106077;1254;60416;-52
2023/12/30 06:03:46;;;;;;;25.80;15.20;;;;;;;-147.86;100.00;-17609.17;105987;1250;60521;-54
2023/12/30 06:06:13;;;;;;;26.60;14.60;;;;;;;-147.86;100.00;-17609.17;105975;1252;73869;-51
2023/12/30 06:08:41;;;;;;;28.60;15.30;;;;;;;-147.86;100.00;-17609.17;105965;1255;64762;-52
2023/12/30 06:11:07;;;;;;;26.10;14.50;;;;;;;-147.86;100.00;-17609.17;105964;1251;72611;-54
2023/12/30 06:13:35;;;;;;;26.60;13.60;;;;;;;-147.86;100.00;-17609.17;106009;1254;60313;-49
2023/12/30 06:16:03;;;;;;;27.50;15.20;;;;;;;-147.86;100.00;-17609.17;105966;1250;60395;-54
2023/12/30 06:18:31;;;;;;;32.40;15.20;;;;;;;-147.86;100.00;-17609.17;106036;1254;73818;-52
2023/12/30 06:20:58;;;;;;;26.40;13.90;;;;;;;-147.86;100.00;-17609.17;105943;1253;64346;-53
2023/12/30 06:23:30;;;;;;;35.50;17.90;;;;;;;-147.86;100.00;-17609.17;105931;1250;72776;-52
2023/12/30 06:26:03;;;;;;;45.40;20.80;;;;;;;-147.86;100.00;-17609.17;105965;1250;60467;-54
2023/12/30 06:28:30;;;;;;;46.00;22.10;;;;;;;-147.86;100.00;-17609.17;105974;1250;60496;-53
2023/12/30 06:30:57;;;;;;;51.00;23.80;;;;;;;-147.86;100.00;-17609.17;106032;1251;73950;-53
2023/12/30 06:33:24;;;;;;;50.60;23.80;;;;;;;-147.86;100.00;-17609.17;105924;1254;64775;-54
2023/12/30 06:35:52;;;;;;;44.30;19.70;;;;;;;-147.86;100.00;-17609.17;105932;1250;72504;-54
2023/12/30 06:38:19;;;;;;;37.30;18.80;;;;;;;-147.86;100.00;-17609.17;105953;1256;60377;-52
2023/12/30 06:40:47;;;;;;;32.30;16.40;;;;;;;-147.86;100.00;-17609.17;105987;1250;60575;-55
2023/12/30 06:43:14;;;;;;;34.10;17.50;;;;;;;-147.86;100.00;-17609.17;105964;1254;73807;-54
2023/12/30 06:45:41;;;;;;;30.20;16.20;;;;;;;-147.86;100.00;-17609.17;105974;1254;64537;-54
2023/12/30 06:48:07;;;;;;;31.20;16.60;;;;;;;-147.86;100.00;-17609.17;106017;1250;71449;-54
2023/12/30 06:50:35;;;;;;;27.10;15.10;;;;;;;-147.86;100.00;-17609.17;105998;1254;60528;-53
2023/12/30 06:53:02;;;;;;;26.10;15.00;;;;;;;-147.86;100.00;-17609.17;105972;1251;60441;-55
2023/12/30 06:55:30;;;;;;;29.10;16.00;;;;;;;-147.86;100.00;-17609.17;106007;1250;73771;-55
2023/12/30 06:58:08;;;;;;;26.30;15.20;;;;;;;-147.86;100.00;-17609.17;105872;1257;63176;-53
2023/12/30 07:00:35;;;;;;;29.50;16.00;;;;;;;-147.86;100.00;-17609.17;105992;1250;71625;-55
2023/12/30 07:03:02;;;;;;;29.50;16.80;;;;;;;-147.86;100.00;-17609.17;105928;1254;60405;-55
2023/12/30 07:05:35;;;;;;;27.00;15.10;;;;;;;-147.86;100.00;-17609.17;106020;1250;60457;-55
2023/12/30 07:08:03;;;;;;;30.10;15.10;;;;;;;-147.86;100.00;-17609.17;106001;1255;73921;-54
2023/12/30 07:10:30;;;;;;;26.20;15.40;;;;;;;-147.86;100.00;-17609.17;105958;1256;65326;-54
2023/12/30 07:12:57;;;;;;;26.20;14.60;;;;;;;-147.86;100.00;-17609.17;105944;1251;72974;-53
2023/12/30 07:15:24;;;;;;;30.10;15.80;;;;;;;-147.86;100.00;-17609.17;105976;1254;61367;-55
2023/12/30 07:17:51;;;;;;;24.60;15.50;;;;;;;-147.86;100.00;-17609.17;105989;1250;60521;-55
2023/12/30 07:20:18;;;;;;;29.10;16.70;;;;;;;-147.86;100.00;-17609.17;105964;1254;73818;-55
2023/12/30 07:22:45;;;;;;;33.50;17.00;;;;;;;-147.86;100.00;-17609.17;105839;1257;64544;-56
2023/12/30 07:25:13;;;;;;;27.10;15.60;;;;;;;-147.86;100.00;-17609.17;105971;1251;72654;-55
2023/12/30 07:27:40;;;;;;;30.00;16.20;;;;;;;-147.86;100.00;-17609.17;105878;1257;61055;-54
2023/12/30 07:30:07;;;;;;;29.40;16.50;;;;;;;-147.86;100.00;-17609.17;105969;1250;60406;-55
2023/12/30 07:32:35;;;;;;;28.10;16.60;;;;;;;-147.86;100.00;-17609.17;105918;1257;73826;-55
2023/12/30 07:35:05;;;;;;;27.20;15.50;;;;;;;-147.86;100.00;-17609.17;105987;1254;64581;-56
2023/12/30 07:37:33;;;;;;;29.50;15.50;;;;;;;-147.86;100.00;-17609.17;105998;1250;70923;-54
2023/12/30 07:40:00;;;;;;;26.30;14.90;;;;;;;-147.86;100.00;-17609.17;105993;1255;60521;-55
2023/12/30 07:42:28;;;;;;;30.40;16.80;;;;;;;-147.86;100.00;-17609.17;106044;1250;60521;-56
2023/12/30 07:44:54;;;;;;;29.40;16.10;;;;;;;-147.86;100.00;-17609.17;105992;1251;73957;-56
2023/12/30 07:47:21;;;;;;;27.40;16.20;;;;;;;-147.86;100.00;-17609.17;105964;1255;64655;-57
2023/12/30 07:49:48;;;;;;;27.80;16.00;;;;;;;-147.86;100.00;-17609.17;105937;1250;72653;-54
2023/12/30 07:52:15;;;;;;;27.40;15.10;;;;;;;-147.86;100.00;-17609.17;105927;1255;61010;-56
2023/12/30 07:54:42;;;;;;;26.70;15.20;;;;;;;-147.86;100.00;-17609.17;105904;1250;60964;-57
2023/12/30 07:57:09;;;;;;;24.20;14.30;;;;;;;-147.86;100.00;-17609.17;105972;1251;73799;-54
2023/12/30 07:59:35;;;;;;;29.20;16.00;;;;;;;-147.86;100.00;-17609.17;105968;1256;64844;-58
2023/12/30 08:02:03;;;;;;;22.30;14.40;;;;;;;-147.86;100.00;-17609.17;105942;1251;72676;-56
2023/12/30 08:04:30;;;;;;;22.50;14.30;;;;;;;-147.86;100.00;-17609.17;105989;1255;61062;-56
2023/12/30 08:06:57;;;;;;;22.90;14.00;;;;;;;-147.86;100.00;-17609.17;105948;1251;60429;-55
2023/12/30 08:09:24;;;;;;;30.40;14.40;;;;;;;-147.86;100.00;-17609.17;105780;1250;73688;-56
2023/12/30 08:11:51;;;;;;;24.90;14.30;;;;;;;-147.86;100.00;-17609.17;105751;1256;64833;-57
2023/12/30 08:14:29;;;;;;;25.10;15.20;;;;;;;-147.86;100.00;-17609.17;105683;1251;72630;-54
2023/12/30 08:16:58;;;;;;;25.60;13.50;;;;;;;-147.86;100.00;-17609.17;105875;1250;60922;-59
2023/12/30 08:19:25;;;;;;;28.40;14.90;;;;;;;-147.86;100.00;-17609.17;105962;1256;60409;-56
2023/12/30 08:21:52;;;;;;;24.40;13.90;;;;;;;-147.86;100.00;-17609.17;105981;1254;73826;-60
2023/12/30 08:24:20;;;;;;;21.90;14.00;;;;;;;-147.86;100.00;-17609.17;105950;1255;64617;-57
2023/12/30 08:26:47;;;;;;;27.70;13.70;;;;;;;-147.86;100.00;-17609.17;106031;1251;72703;-57
2023/12/30 08:29:15;;;;;;;23.50;13.00;;;;;;;-147.86;100.00;-17609.17;105980;1254;60364;-54
2023/12/30 08:31:45;;;;;;;28.90;14.30;;;;;;;-147.86;100.00;-17609.17;105982;1256;60344;-56
2023/12/30 08:34:13;;;;;;;23.50;13.10;;;;;;;-147.86;100.00;-17609.17;106027;1250;73886;-55
2023/12/30 08:36:40;;;;;;;23.20;13.70;;;;;;;-147.86;100.00;-17609.17;105958;1254;66152;-55
2023/12/30 08:39:07;;;;;;;23.00;13.10;;;;;;;-147.86;100.00;-17609.17;105954;1250;72624;-58
2023/12/30 08:41:35;;;;;;;21.50;13.40;;;;;;;-147.86;100.00;-17609.17;105961;1250;60370;-58
2023/12/30 08:44:02;;;;;;;23.10;13.20;;;;;;;-147.86;100.00;-17609.17;106062;1250;61554;-53
2023/12/30 08:46:30;;;;;;;22.20;13.50;;;;;;;-147.86;100.00;-17609.17;106004;1254;73678;-57
2023/12/30 08:48:57;;;;;;;23.60;14.50;;;;;;;-147.86;100.00;-17609.17;106019;1254;64741;-55
2023/12/30 08:51:25;;;;;;;26.00;14.40;;;;;;;-147.86;100.00;-17609.17;105998;1250;71735;-56
2023/12/30 08:53:53;;;;;;;24.80;15.10;;;;;;;-147.86;100.00;-17609.17;105974;1255;61930;-55
2023/12/30 08:56:20;;;;;;;24.60;15.20;;;;;;;-147.86;100.00;-17609.17;105946;1251;60441;-54
2023/12/30 08:58:47;;;;;;;24.80;15.20;;;;;;;-147.86;100.00;-17609.17;105714;1251;357736;-56
2023/12/30 09:03:32;;;;;;;31.30;16.30;;;;;;;-147.86;100.00;-17609.17;103555;1279;615739;-54
2023/12/30 09:05:59;;;;;;;23.90;15.20;;;;;;;-147.86;100.00;-17609.17;105005;1271;59360;-55
2023/12/30 09:08:26;;;;;;;31.50;15.50;;;;;;;-147.86;100.00;-17609.17;105105;1269;59352;-54
2023/12/30 09:10:53;;;;;;;24.20;15.10;;;;;;;-147.86;100.00;-17609.17;105118;1265;72122;-54
2023/12/30 09:13:21;;;;;;;23.50;15.20;;;;;;;-147.86;100.00;-17609.17;105075;1269;64639;-56
2023/12/30 09:15:48;;;;;;;30.10;15.60;;;;;;;-147.86;100.00;-17609.17;104926;1269;202844;-53
2023/12/30 09:18:15;;;;;;;23.30;14.90;;;;;;;-147.86;100.00;-17609.17;105257;1266;60254;-55
2023/12/30 09:20:43;;;;;;;24.90;13.90;;;;;;;-147.86;100.00;-17609.17;105291;1264;60285;-52
2023/12/30 09:23:10;;;;;;;23.00;14.10;;;;;;;-147.86;100.00;-17609.17;105211;1264;72192;-55
2023/12/30 09:25:37;;;;;;;21.60;13.60;;;;;;;-147.86;100.00;-17609.17;105312;1266;64830;-53
2023/12/30 09:28:05;;;;;;;21.70;14.00;;;;;;;-147.86;100.00;-17609.17;105253;1264;72677;-52
2023/12/30 09:30:32;;;;;;;23.40;14.90;;;;;;;-147.86;100.00;-17609.17;105248;1266;60300;-53
2023/12/30 09:32:59;;;;;;;25.10;14.50;;;;;;;-147.86;100.00;-17609.17;105202;1263;60127;-56
2023/12/30 09:35:27;;;;;;;23.30;14.00;;;;;;;-147.86;100.00;-17609.17;105253;1266;72994;-57
2023/12/30 09:37:54;;;;;;;27.60;13.70;;;;;;;-147.86;100.00;-17609.17;105205;1263;64779;-56
2023/12/30 09:40:21;;;;;;;22.70;14.60;;;;;;;-147.86;100.00;-17609.17;105249;1267;72607;-53
2023/12/30 09:42:49;;;;;;;24.90;13.90;;;;;;;-147.86;100.00;-17609.17;105099;1262;60800;-52
2023/12/30 09:45:16;;;;;;;22.50;14.70;;;;;;;-147.86;100.00;-17609.17;104886;1263;60305;-55
2023/12/30 09:47:45;;;;;;;23.00;13.60;;;;;;;-147.86;100.00;-17609.17;105152;1265;72911;-53
2023/12/30 09:50:12;;;;;;;28.10;15.40;;;;;;;-147.86;100.00;-17609.17;105165;1269;64709;-54
2023/12/30 09:52:39;;;;;;;21.10;14.50;;;;;;;-147.86;100.00;-17609.17;105119;1269;71642;-53
2023/12/30 09:55:06;;;;;;;26.40;14.40;;;;;;;-147.86;100.00;-17609.17;104971;1269;61949;-52
2023/12/30 09:57:33;;;;;;;23.50;14.20;;;;;;;-147.86;100.00;-17609.17;105269;1261;59975;-55
2023/12/30 10:00:00;;;;;;;20.00;14.00;;;;;;;-147.86;100.00;-17609.17;105235;1260;73055;-52
2023/12/30 10:02:28;;;;;;;21.80;14.30;;;;;;;-147.86;100.00;-17609.17;105271;1266;65121;-56
2023/12/30 10:04:54;;;;;;;28.70;15.20;;;;;;;-147.86;100.00;-17609.17;105216;1261;72561;-54
2023/12/30 10:07:21;;;;;;;20.40;13.80;;;;;;;-147.86;100.00;-17609.17;105199;1265;60347;-55
2023/12/30 10:09:50;;;;;;;22.90;13.90;;;;;;;-147.86;100.00;-17609.17;105229;1261;60147;-54
2023/12/30 10:12:18;;;;;;;26.50;13.60;;;;;;;-147.86;100.00;-17609.17;105231;1262;73024;-54
2023/12/30 10:14:45;;;;;;;20.70;12.30;;;;;;;-147.86;100.00;-17609.17;105214;1265;64794;-55
2023/12/30 10:17:12;;;;;;;19.30;12.00;;;;;;;-147.86;100.00;-17609.17;105194;1263;72499;-54
2023/12/30 10:19:40;;;;;;;15.10;10.90;;;;;;;-147.86;100.00;-17609.17;105242;1267;60310;-54
2023/12/30 10:22:07;;;;;;;15.40;10.50;;;;;;;-147.86;100.00;-17609.17;105332;1260;60045;-54
2023/12/30 10:24:35;;;;;;;16.00;11.10;;;;;;;-147.86;100.00;-17609.17;105199;1261;72061;-53
2023/12/30 10:27:04;;;;;;;19.70;11.70;;;;;;;-147.86;100.00;-17609.17;105288;1265;64591;-55
2023/12/30 10:29:32;;;;;;;19.40;10.70;;;;;;;-147.86;100.00;-17609.17;105245;1264;72697;-56
2023/12/30 10:32:20;;;;;;;16.20;11.50;;;;;;;-147.86;100.00;-17609.17;105231;1261;60352;-54
2023/12/30 10:34:47;;;;;;;16.60;10.80;;;;;;;-147.86;99.40;-17609.17;105266;1261;60278;-52
2023/12/30 10:37:14;;;;;;;19.50;10.90;;;;;;;-147.86;99.15;-17609.17;105252;1261;73056;-54
2023/12/30 10:39:41;;;;;;;16.80;11.00;;;;;;;-147.86;98.70;-17609.17;105579;1262;64662;-55
2023/12/30 10:42:10;;;;;;;16.80;10.40;;;;;;;-147.86;98.14;-17609.17;105312;1257;71695;-54
2023/12/30 10:44:37;;;;;;;11.80;8.80;;;;;;;-147.86;96.85;-17609.17;105609;1262;61909;-54